createdAt,value
2022-12-09T00:01:23.803Z,89.40
2022-12-09T00:03:50.512Z,24.70
2022-12-09T00:06:21.775Z,25.10
2022-12-09T00:08:49.077Z,23.30
2022-12-09T00:11:16.988Z,25.80
2022-12-09T00:13:44.161Z,53.30
2022-12-09T00:16:14.122Z,45.10
2022-12-09T00:18:41.902Z,48.70
2022-12-09T00:21:21.319Z,25.40
2022-12-09T00:23:49.505Z,24.30
2022-12-09T00:26:17.804Z,25.40
2022-12-09T00:28:45.097Z,26.80
2022-12-09T00:31:14.296Z,26.20
2022-12-09T00:33:41.496Z,25.40
2022-12-09T00:36:14.444Z,30.20
2022-12-09T00:38:41.931Z,32.40
2022-12-09T00:41:08.918Z,28.60
2022-12-09T00:43:35.825Z,32.10
2022-12-09T00:46:02.552Z,24.60
2022-12-09T00:48:29.467Z,27.70
2022-12-09T00:50:56.457Z,27.90
2022-12-09T00:53:23.476Z,24.40
2022-12-09T00:55:50.156Z,26.10
2022-12-09T00:58:17.143Z,25.60
2022-12-09T01:00:44.617Z,29.70
2022-12-09T01:03:16.194Z,34.50
2022-12-09T01:08:11.266Z,23.80
2022-12-09T01:10:39.376Z,27.00
2022-12-09T01:13:06.362Z,23.60
2022-12-09T01:15:33.689Z,24.20
2022-12-09T01:18:00.338Z,22.20
2022-12-09T01:20:26.971Z,23.10
2022-12-09T01:22:53.701Z,26.90
2022-12-09T01:25:20.385Z,25.00
2022-12-09T01:27:46.923Z,23.00
2022-12-09T01:30:14.615Z,19.20
2022-12-09T01:32:42.208Z,19.50
2022-12-09T01:35:09.350Z,18.20
2022-12-09T01:37:37.676Z,17.40
2022-12-09T01:40:06.934Z,17.00
2022-12-09T01:42:34.431Z,17.40
2022-12-09T01:45:28.634Z,17.60
2022-12-09T01:48:05.650Z,17.60
2022-12-09T01:50:36.122Z,20.10
2022-12-09T01:53:03.194Z,22.60
2022-12-09T01:55:30.011Z,20.70
2022-12-09T01:57:56.763Z,19.70
2022-12-09T02:00:23.532Z,18.80
2022-12-09T02:02:50.763Z,17.80
2022-12-09T02:05:18.945Z,16.40
2022-12-09T02:07:45.695Z,22.40
2022-12-09T02:10:17.494Z,21.60
2022-12-09T02:12:58.886Z,20.00
2022-12-09T02:15:40.082Z,20.10
2022-12-09T02:18:24.787Z,19.30
2022-12-09T02:21:01.980Z,19.70
2022-12-09T02:23:39.318Z,18.40
2022-12-09T02:26:19.651Z,19.90
2022-12-09T02:29:01.797Z,20.60
2022-12-09T02:32:06.799Z,21.40
2022-12-09T02:34:35.812Z,24.30
2022-12-09T02:37:27.378Z,23.50
2022-12-09T02:40:02.371Z,21.20
2022-12-09T02:42:34.992Z,21.50
2022-12-09T02:45:05.324Z,21.70
2022-12-09T02:47:36.694Z,19.90
2022-12-09T02:52:35.841Z,21.50
2022-12-09T02:55:07.699Z,23.60
2022-12-09T02:57:37.217Z,23.80
2022-12-09T03:00:06.471Z,21.80
2022-12-09T03:02:42.408Z,25.10
2022-12-09T03:05:37.145Z,20.90
2022-12-09T03:08:13.679Z,49.90
2022-12-09T03:11:02.291Z,52.70
2022-12-09T03:14:08.137Z,30.50
2022-12-09T03:16:46.943Z,22.70
2022-12-09T03:19:32.576Z,19.70
2022-12-09T03:22:03.415Z,18.40
2022-12-09T03:24:38.478Z,16.80
2022-12-09T03:27:09.693Z,15.60
2022-12-09T03:29:40.783Z,17.00
2022-12-09T03:32:10.918Z,16.60
2022-12-09T03:34:42.417Z,15.80
2022-12-09T03:39:40.104Z,17.40
2022-12-09T03:42:16.588Z,16.40
2022-12-09T03:44:58.475Z,19.70
2022-12-09T03:47:25.051Z,20.90
2022-12-09T03:49:51.997Z,19.00
2022-12-09T03:52:42.037Z,17.90
2022-12-09T03:55:17.943Z,18.10
2022-12-09T03:57:47.749Z,15.80
2022-12-09T04:00:14.939Z,18.40
2022-12-09T04:02:41.791Z,16.50
2022-12-09T04:05:08.959Z,18.80
2022-12-09T04:07:36.065Z,16.60
2022-12-09T04:10:02.631Z,17.70
2022-12-09T04:12:29.198Z,17.20
2022-12-09T04:14:55.728Z,18.30
2022-12-09T04:17:22.641Z,17.10
2022-12-09T04:19:49.403Z,18.70
2022-12-09T04:22:17.003Z,18.80
2022-12-09T04:24:44.083Z,31.00
2022-12-09T04:27:11.876Z,26.10
2022-12-09T04:29:38.436Z,29.20
2022-12-09T04:32:05.501Z,27.10
2022-12-09T04:34:34.025Z,27.50
2022-12-09T04:37:00.980Z,26.00
2022-12-09T04:39:27.658Z,25.40
2022-12-09T04:41:54.385Z,24.10
2022-12-09T04:44:20.876Z,24.40
2022-12-09T04:46:47.422Z,25.40
2022-12-09T04:49:14.761Z,26.20
2022-12-09T04:51:41.624Z,27.30
2022-12-09T04:54:13.101Z,28.00
2022-12-09T04:59:07.255Z,29.20
2022-12-09T05:01:34.827Z,34.80
2022-12-09T05:04:02.213Z,35.80
2022-12-09T05:06:29.473Z,35.90
2022-12-09T05:08:56.670Z,35.30
2022-12-09T05:11:23.885Z,36.10
2022-12-09T05:13:52.658Z,35.60
2022-12-09T05:16:19.880Z,40.50
2022-12-09T05:18:48.583Z,43.70
2022-12-09T05:21:19.397Z,40.20
2022-12-09T05:23:46.555Z,43.60
2022-12-09T05:26:16.914Z,37.80
2022-12-09T05:28:43.853Z,41.10
2022-12-09T05:31:14.643Z,37.40
2022-12-09T05:33:42.269Z,39.00
2022-12-09T05:36:11.238Z,38.30
2022-12-09T05:38:38.692Z,35.10
2022-12-09T05:41:05.989Z,37.60
2022-12-09T05:43:33.963Z,51.50
2022-12-09T05:46:04.424Z,66.10
2022-12-09T05:48:31.272Z,66.40
2022-12-09T05:51:07.299Z,68.70
2022-12-09T05:53:34.681Z,73.60
2022-12-09T05:56:02.260Z,71.40
2022-12-09T05:58:29.574Z,60.70
2022-12-09T06:00:56.399Z,54.90
2022-12-09T06:03:24.406Z,58.60
2022-12-09T06:05:51.389Z,71.20
2022-12-09T06:08:18.103Z,58.30
2022-12-09T06:10:44.948Z,64.00
2022-12-09T06:13:12.222Z,56.90
2022-12-09T06:15:39.178Z,50.30
2022-12-09T06:18:06.000Z,47.00
2022-12-09T06:20:33.086Z,44.10
2022-12-09T06:23:00.150Z,40.80
2022-12-09T06:25:26.833Z,40.50
2022-12-09T06:27:53.918Z,45.50
2022-12-09T06:30:21.107Z,41.80
2022-12-09T06:32:48.273Z,44.20
2022-12-09T06:35:15.698Z,47.70
2022-12-09T06:37:43.109Z,46.30
2022-12-09T06:40:10.507Z,46.00
2022-12-09T06:42:37.615Z,50.40
2022-12-09T06:45:05.280Z,45.90
2022-12-09T06:47:33.006Z,49.20
2022-12-09T06:50:05.889Z,55.10
2022-12-09T06:52:33.663Z,48.50
2022-12-09T06:55:00.688Z,45.00
2022-12-09T06:57:27.464Z,48.30
2022-12-09T06:59:54.458Z,47.80
2022-12-09T07:02:21.719Z,50.70
2022-12-09T07:04:55.460Z,58.90
2022-12-09T07:07:23.207Z,55.60
2022-12-09T07:09:49.762Z,56.10
2022-12-09T07:12:17.722Z,54.20
2022-12-09T07:14:44.516Z,54.30
2022-12-09T07:17:20.136Z,56.70
2022-12-09T07:19:48.285Z,56.20
2022-12-09T07:22:15.953Z,53.30
2022-12-09T07:24:43.389Z,54.90
2022-12-09T07:27:19.332Z,60.90
2022-12-09T07:29:47.295Z,68.30
2022-12-09T07:32:14.729Z,66.20
2022-12-09T07:34:41.579Z,68.40
2022-12-09T07:37:08.685Z,67.70
2022-12-09T07:39:35.451Z,68.70
2022-12-09T07:42:02.254Z,62.80
2022-12-09T07:44:29.798Z,48.90
2022-12-09T07:46:57.540Z,60.50
2022-12-09T07:49:26.491Z,52.70
2022-12-09T07:51:53.543Z,48.60
2022-12-09T07:54:21.346Z,52.60
2022-12-09T07:56:48.797Z,56.60
2022-12-09T07:59:17.018Z,57.10
2022-12-09T08:01:44.577Z,56.80
2022-12-09T08:04:12.177Z,49.60
2022-12-09T08:06:40.135Z,46.10
2022-12-09T08:09:10.272Z,43.60
2022-12-09T08:11:37.566Z,42.30
2022-12-09T08:14:11.322Z,50.00
2022-12-09T08:16:39.305Z,50.30
2022-12-09T08:19:06.232Z,50.40
2022-12-09T08:21:33.708Z,56.40
2022-12-09T08:24:03.501Z,51.20
2022-12-09T08:26:32.285Z,51.40
2022-12-09T08:29:00.181Z,55.10
2022-12-09T08:31:28.429Z,46.70
2022-12-09T08:33:56.193Z,47.60
2022-12-09T08:36:28.523Z,46.60
2022-12-09T08:38:58.107Z,48.10
2022-12-09T08:41:28.150Z,47.10
2022-12-09T08:43:55.080Z,42.20
2022-12-09T08:46:21.915Z,42.90
2022-12-09T08:48:48.926Z,44.60
2022-12-09T08:51:15.825Z,45.40
2022-12-09T08:53:42.884Z,44.20
2022-12-09T08:56:12.098Z,44.90
2022-12-09T08:58:40.249Z,42.30
2022-12-09T09:01:08.112Z,44.30
2022-12-09T09:03:35.263Z,43.10
2022-12-09T09:06:10.493Z,40.70
2022-12-09T09:08:39.084Z,39.40
2022-12-09T09:11:16.056Z,41.50
2022-12-09T09:13:44.419Z,43.00
2022-12-09T09:16:15.927Z,55.80
2022-12-09T09:18:43.785Z,47.90
2022-12-09T09:21:13.936Z,47.80
2022-12-09T09:23:41.413Z,49.30
2022-12-09T09:26:17.991Z,43.90
2022-12-09T09:28:45.859Z,60.90
2022-12-09T09:31:15.459Z,48.00
2022-12-09T09:33:42.683Z,43.80
2022-12-09T09:36:14.170Z,42.50
2022-12-09T09:41:24.759Z,41.30
2022-12-09T09:43:52.620Z,38.70
2022-12-09T09:46:33.321Z,36.50
2022-12-09T09:49:01.552Z,33.20
2022-12-09T09:51:29.278Z,35.00
2022-12-09T09:53:56.357Z,37.20
2022-12-09T09:56:39.155Z,35.40
2022-12-09T09:59:19.822Z,36.30
2022-12-09T10:02:00.332Z,38.90
2022-12-09T10:04:54.509Z,37.70
2022-12-09T10:07:44.156Z,35.00
2022-12-09T10:10:21.786Z,40.90
2022-12-09T10:13:04.658Z,31.70
2022-12-09T10:15:41.902Z,33.60
2022-12-09T10:18:16.257Z,31.50
2022-12-09T10:20:43.494Z,31.50
2022-12-09T10:23:15.722Z,33.20
2022-12-09T10:25:53.745Z,29.30
2022-12-09T10:28:25.384Z,29.80
2022-12-09T10:30:54.508Z,31.00
2022-12-09T10:33:32.448Z,38.90
2022-12-09T10:35:59.489Z,27.30
2022-12-09T10:38:28.875Z,27.80
2022-12-09T10:41:07.462Z,27.00
2022-12-09T10:43:37.550Z,28.10
2022-12-09T10:46:23.000Z,28.00
2022-12-09T10:48:50.284Z,27.00
2022-12-09T10:51:23.036Z,25.00
2022-12-09T10:53:56.186Z,25.20
2022-12-09T10:56:30.799Z,24.90
2022-12-09T10:59:38.131Z,28.30
2022-12-09T11:02:07.951Z,27.60
2022-12-09T11:04:36.340Z,30.10
2022-12-09T11:07:05.507Z,26.40
2022-12-09T11:09:38.050Z,25.90
2022-12-09T11:12:14.201Z,22.30
2022-12-09T11:14:51.117Z,22.00
2022-12-09T11:17:30.842Z,23.80
2022-12-09T11:20:07.560Z,23.00
2022-12-09T11:22:41.172Z,27.10
2022-12-09T11:25:20.181Z,23.10
2022-12-09T11:28:23.119Z,21.60
2022-12-09T11:31:27.198Z,19.70
2022-12-09T11:33:50.119Z,22.00
2022-12-09T11:36:43.650Z,20.40
2022-12-09T11:39:33.683Z,20.90
2022-12-09T11:42:17.377Z,24.50
2022-12-09T11:45:01.722Z,23.70
2022-12-09T11:48:22.631Z,22.80
2022-12-09T11:50:31.972Z,23.50
2022-12-09T11:53:23.755Z,23.20
2022-12-09T11:58:52.198Z,22.20
2022-12-09T12:01:42.697Z,24.60
2022-12-09T12:04:13.333Z,27.50
2022-12-09T12:06:51.668Z,30.70
2022-12-09T12:09:27.391Z,32.50
2022-12-09T12:12:06.543Z,31.10
2022-12-09T12:14:36.652Z,30.50
2022-12-09T12:17:21.937Z,28.80
2022-12-09T12:19:51.341Z,28.70
2022-12-09T12:22:39.327Z,29.80
2022-12-09T12:25:17.811Z,30.10
2022-12-09T12:28:03.403Z,29.80
2022-12-09T12:30:47.912Z,29.50
2022-12-09T12:36:07.057Z,24.90
2022-12-09T12:39:15.376Z,23.80
2022-12-09T12:42:04.853Z,24.10
2022-12-09T12:44:49.421Z,24.50
2022-12-09T12:47:49.233Z,20.80
2022-12-09T12:50:36.366Z,60.30
2022-12-09T12:53:24.654Z,35.90
2022-12-09T12:56:05.439Z,26.20
2022-12-09T12:58:53.960Z,26.80
2022-12-09T13:01:51.877Z,31.40
2022-12-09T13:04:33.140Z,34.20
2022-12-09T13:07:18.109Z,35.60
2022-12-09T13:09:57.790Z,33.30
2022-12-09T13:12:36.554Z,29.30
2022-12-09T13:15:03.395Z,27.60
2022-12-09T13:17:29.940Z,29.70
2022-12-09T13:20:01.238Z,29.70
2022-12-09T13:22:40.738Z,32.10
2022-12-09T13:25:38.201Z,35.40
2022-12-09T13:29:00.087Z,31.60
2022-12-09T13:31:32.826Z,31.80
2022-12-09T13:34:18.620Z,41.50
2022-12-09T13:36:47.517Z,38.20
2022-12-09T13:39:39.981Z,36.60
2022-12-09T13:42:25.145Z,34.10
2022-12-09T13:45:05.599Z,31.30
2022-12-09T13:47:38.270Z,35.70
2022-12-09T13:50:08.351Z,34.00
2022-12-09T13:52:42.398Z,35.50
2022-12-09T13:55:36.106Z,33.50
2022-12-09T13:58:25.696Z,35.60
2022-12-09T14:01:37.289Z,36.20
2022-12-09T14:04:12.544Z,36.40
2022-12-09T14:06:52.385Z,36.50
2022-12-09T14:09:52.414Z,38.90
2022-12-09T14:12:44.095Z,46.70
2022-12-09T14:15:25.961Z,43.90
2022-12-09T14:17:52.309Z,42.00
2022-12-09T14:20:28.544Z,39.50
2022-12-09T14:23:13.741Z,57.90
2022-12-09T14:25:55.024Z,64.40
2022-12-09T14:28:33.785Z,91.80
2022-12-09T14:31:08.068Z,54.90
2022-12-09T14:33:45.996Z,94.60
2022-12-09T14:36:15.222Z,111.40
2022-12-09T14:39:34.473Z,73.40
2022-12-09T14:42:13.265Z,102.90
2022-12-09T14:45:03.754Z,121.90
2022-12-09T14:47:41.837Z,96.60
2022-12-09T14:50:14.783Z,83.40
2022-12-09T14:52:53.162Z,67.80
2022-12-09T14:55:22.690Z,69.10
2022-12-09T14:57:50.561Z,56.90
2022-12-09T15:00:34.643Z,50.60
2022-12-09T15:03:31.245Z,49.20
2022-12-09T15:06:01.752Z,50.00
2022-12-09T15:08:29.500Z,49.10
2022-12-09T15:10:56.020Z,51.40
2022-12-09T15:13:25.741Z,53.30
2022-12-09T15:15:55.391Z,52.90
2022-12-09T15:18:24.872Z,54.20
2022-12-09T15:20:57.581Z,48.70
2022-12-09T15:23:35.840Z,49.70
2022-12-09T15:26:23.323Z,50.60
2022-12-09T15:28:51.893Z,53.70
2022-12-09T15:31:21.266Z,61.90
2022-12-09T15:33:50.854Z,83.40
2022-12-09T15:36:43.450Z,87.40
2022-12-09T15:39:18.288Z,97.00
2022-12-09T15:41:47.684Z,92.90
2022-12-09T15:44:18.042Z,89.70
2022-12-09T15:46:47.709Z,100.20
2022-12-09T15:49:19.025Z,99.40
2022-12-09T15:54:18.879Z,91.10
2022-12-09T15:56:59.028Z,91.70
2022-12-09T15:59:55.946Z,96.80
2022-12-09T16:02:27.312Z,95.20
2022-12-09T16:04:56.907Z,95.90
2022-12-09T16:07:23.865Z,114.40
2022-12-09T16:10:16.783Z,101.40
2022-12-09T16:12:44.284Z,90.00
2022-12-09T16:15:13.829Z,90.00
2022-12-09T16:17:55.886Z,98.50
2022-12-09T16:20:35.608Z,111.10
2022-12-09T16:23:03.519Z,118.80
2022-12-09T16:25:38.672Z,112.00
2022-12-09T16:28:06.661Z,111.60
2022-12-09T16:30:44.738Z,110.30
2022-12-09T16:33:20.369Z,106.10
2022-12-09T16:36:01.679Z,111.50
2022-12-09T16:38:30.522Z,195.40
2022-12-09T16:40:59.920Z,183.60
2022-12-09T16:43:27.340Z,159.90
2022-12-09T16:46:21.667Z,154.60
2022-12-09T16:48:49.605Z,230.30
2022-12-09T16:51:20.405Z,189.10
2022-12-09T16:53:51.916Z,170.10
2022-12-09T16:58:49.071Z,171.60
2022-12-09T17:01:17.769Z,184.60
2022-12-09T17:03:51.132Z,218.50
2022-12-09T17:06:19.472Z,200.90
2022-12-09T17:08:46.485Z,172.90
2022-12-09T17:11:13.455Z,177.40
2022-12-09T17:13:40.430Z,152.10
2022-12-09T17:16:07.973Z,153.60
2022-12-09T17:18:35.011Z,156.00
2022-12-09T17:21:05.663Z,142.70
2022-12-09T17:23:39.117Z,145.90
2022-12-09T17:26:09.493Z,143.10
2022-12-09T17:28:36.754Z,137.40
2022-12-09T17:31:08.546Z,137.60
2022-12-09T17:33:35.159Z,142.80
2022-12-09T17:36:01.905Z,132.70
2022-12-09T17:38:29.573Z,174.10
2022-12-09T17:40:56.757Z,243.60
2022-12-09T17:43:23.269Z,212.60
2022-12-09T17:45:49.932Z,303.30
2022-12-09T17:48:16.458Z,247.30
2022-12-09T17:50:42.855Z,207.10
2022-12-09T17:53:09.628Z,268.20
2022-12-09T17:55:38.417Z,171.20
2022-12-09T17:58:05.062Z,201.50
2022-12-09T18:00:31.507Z,175.60
2022-12-09T18:02:57.981Z,168.00
2022-12-09T18:05:24.533Z,162.50
2022-12-09T18:07:50.971Z,135.00
2022-12-09T18:10:17.482Z,145.60
2022-12-09T18:12:44.046Z,161.10
2022-12-09T18:15:11.137Z,143.80
2022-12-09T18:17:37.708Z,127.50
2022-12-09T18:20:05.505Z,112.80
2022-12-09T18:22:32.194Z,107.10
2022-12-09T18:24:58.652Z,111.30
2022-12-09T18:27:25.091Z,108.60
2022-12-09T18:29:53.710Z,109.20
2022-12-09T18:32:20.226Z,101.40
2022-12-09T18:34:46.781Z,97.80
2022-12-09T18:37:13.299Z,96.50
2022-12-09T18:39:39.836Z,100.20
2022-12-09T18:42:07.096Z,96.30
2022-12-09T18:44:33.846Z,104.80
2022-12-09T18:47:00.484Z,138.20
2022-12-09T18:49:27.023Z,143.90
2022-12-09T18:51:54.376Z,143.30
2022-12-09T18:54:29.121Z,152.50
2022-12-09T18:56:56.164Z,148.60
2022-12-09T18:59:23.720Z,134.40
2022-12-09T19:01:50.328Z,128.70
2022-12-09T19:04:20.471Z,114.40
2022-12-09T19:06:49.188Z,114.80
2022-12-09T19:09:32.145Z,109.80
2022-12-09T19:12:11.305Z,130.10
2022-12-09T19:14:45.640Z,150.50
2022-12-09T19:17:12.112Z,156.90
2022-12-09T19:19:38.652Z,125.40
2022-12-09T19:22:05.075Z,121.10
2022-12-09T19:24:32.227Z,135.50
2022-12-09T19:26:58.676Z,134.10
2022-12-09T19:29:25.940Z,114.40
2022-12-09T19:31:53.524Z,112.50
2022-12-09T19:34:25.499Z,97.30
2022-12-09T19:36:54.183Z,101.90
2022-12-09T19:39:22.850Z,90.70
2022-12-09T19:41:50.303Z,98.80
2022-12-09T19:44:37.445Z,94.80
2022-12-09T19:47:05.715Z,92.00
2022-12-09T19:49:32.346Z,91.00
2022-12-09T19:51:58.888Z,87.60
2022-12-09T19:54:28.583Z,89.80
2022-12-09T19:56:56.306Z,94.60
2022-12-09T19:59:22.898Z,97.40
2022-12-09T20:01:49.489Z,93.70
2022-12-09T20:04:47.633Z,86.40
2022-12-09T20:07:08.279Z,81.90
2022-12-09T20:09:36.330Z,82.70
2022-12-09T20:12:03.161Z,78.30
2022-12-09T20:14:29.614Z,79.20
2022-12-09T20:16:56.141Z,103.60
2022-12-09T20:19:22.782Z,100.10
2022-12-09T20:21:49.268Z,114.50
2022-12-09T20:24:15.681Z,147.30
2022-12-09T20:26:42.401Z,112.20
2022-12-09T20:29:10.812Z,109.40
2022-12-09T20:31:38.924Z,108.20
2022-12-09T20:34:08.781Z,97.10
2022-12-09T20:36:37.199Z,89.10
2022-12-09T20:39:07.296Z,86.30
2022-12-09T20:41:33.828Z,141.70
2022-12-09T20:44:00.475Z,129.20
2022-12-09T20:46:29.858Z,115.40
2022-12-09T20:48:57.848Z,111.60
2022-12-09T20:51:27.054Z,109.60
2022-12-09T20:53:54.758Z,105.20
2022-12-09T20:56:22.798Z,109.30
2022-12-09T20:58:51.221Z,102.00
2022-12-09T21:01:29.631Z,98.50
2022-12-09T21:03:57.854Z,107.20
2022-12-09T21:06:27.689Z,103.00
2022-12-09T21:08:54.140Z,108.20
2022-12-09T21:11:23.007Z,96.10
2022-12-09T21:13:51.964Z,107.50
2022-12-09T21:16:21.595Z,91.40
2022-12-09T21:18:50.129Z,90.70
2022-12-09T21:21:18.241Z,91.40
2022-12-09T21:23:45.157Z,89.20
2022-12-09T21:26:14.816Z,93.10
2022-12-09T21:28:42.543Z,84.40
2022-12-09T21:31:12.037Z,100.50
2022-12-09T21:33:39.817Z,78.50
2022-12-09T21:36:09.234Z,79.60
2022-12-09T21:38:36.718Z,81.70
2022-12-09T21:41:06.132Z,77.00
2022-12-09T21:43:34.348Z,75.20
2022-12-09T21:46:10.705Z,70.20
2022-12-09T21:48:37.989Z,71.60
2022-12-09T21:51:05.367Z,69.00
2022-12-09T21:53:32.331Z,70.10
2022-12-09T21:56:06.868Z,70.10
2022-12-09T21:58:34.001Z,70.30
2022-12-09T22:01:07.520Z,71.80
2022-12-09T22:03:34.043Z,78.90
2022-12-09T22:06:00.429Z,79.80
2022-12-09T22:08:27.440Z,86.10
2022-12-09T22:10:53.929Z,88.20
2022-12-09T22:13:20.307Z,89.60
2022-12-09T22:15:46.884Z,132.00
2022-12-09T22:18:13.501Z,121.70
2022-12-09T22:21:23.605Z,130.10
2022-12-09T22:23:27.150Z,178.80
2022-12-09T22:25:53.688Z,154.30
2022-12-09T22:28:20.228Z,144.90
2022-12-09T22:30:46.841Z,179.60
2022-12-09T22:33:13.411Z,152.00
2022-12-09T22:35:39.950Z,150.00
2022-12-09T22:38:12.884Z,171.10
2022-12-09T22:40:41.335Z,147.30
2022-12-09T22:43:07.771Z,135.70
2022-12-09T22:45:37.316Z,144.10
2022-12-09T22:48:04.347Z,136.40
2022-12-09T22:50:30.946Z,110.00
2022-12-09T22:52:57.338Z,106.20
2022-12-09T22:55:23.791Z,101.00
2022-12-09T22:57:50.259Z,107.40
2022-12-09T23:00:17.031Z,103.90
2022-12-09T23:02:43.679Z,98.20
2022-12-09T23:05:10.325Z,95.30
2022-12-09T23:07:36.713Z,90.60
2022-12-09T23:10:03.484Z,99.40
2022-12-09T23:12:29.939Z,100.90
2022-12-09T23:14:56.360Z,107.80
2022-12-09T23:17:22.805Z,102.80
2022-12-09T23:19:49.246Z,100.80
2022-12-09T23:22:15.903Z,105.30
2022-12-09T23:24:42.343Z,94.60
2022-12-09T23:27:08.765Z,95.70
2022-12-09T23:29:35.221Z,85.70
2022-12-09T23:32:01.840Z,77.50
2022-12-09T23:34:28.299Z,76.10
2022-12-09T23:36:54.847Z,75.50
2022-12-09T23:39:21.388Z,66.70
2022-12-09T23:41:48.202Z,65.70
2022-12-09T23:44:18.063Z,61.80
2022-12-09T23:46:44.817Z,59.10
2022-12-09T23:49:11.456Z,63.80
2022-12-09T23:51:40.844Z,60.00
2022-12-09T23:54:08.759Z,58.00
2022-12-09T23:56:39.265Z,60.00
2022-12-09T23:59:08.932Z,61.20
